Terminal Aerodrome Forecast
Issued by NWS Charleston, WV

Current Version | Previous Version | Graphics & Text | Print | Product List | Glossary On
Versions: 1 2 3 4 5 6 7 8 9 10 11 12 13 14 15 16 17 18 19 20 21 22 23 24 25 26
000
FTUS41 KRLX 270500 RRA
TAFEKN
TAF
KEKN 270556Z 2706/2806 31003KT 6SM -RA BR OVC015
     FM270800 31004KT 5SM -RASN BR OVC010
     FM271000 33004KT 4SM -SHSN OVC008
     FM271600 30009KT P6SM -SHRASN OVC020
     FM272300 30008KT 4SM -SHSN BR OVC010
     FM280500 32007KT P6SM BKN028=

USA.gov is the U.S. government's official web portal to all federal, state and local government web resources and services.